TAF and METAR

Could not understand the following METAR

FAWK 141500Z AUTO 02008KT //// // ////// ///// Q1023

TAF for Waterkloof (Saaf

TAF FAWK 140900Z 1410/1418 01011KT CAVOK TX32/1413Z TN26/1418Z
Report created 14. des 10:00

between 14. des 11:00 - 14. des 19:00

wind 11 knots from N (010°) Clear sky Max temperature 32° expected today at around 14 o'clock Min temperature 26° expected today at around 19 o'clock
Waterkloof (Saaf in South Africa at 1500m

Latest 5 airports